createdAt,value
2023-12-16T00:00:59.560Z,41.44
2023-12-16T00:02:06.181Z,41.40
2023-12-16T00:03:00.255Z,41.37
2023-12-16T00:03:59.306Z,41.33
2023-12-16T00:04:59.268Z,41.39
2023-12-16T00:05:59.311Z,41.39
2023-12-16T00:06:59.316Z,41.33
2023-12-16T00:07:59.219Z,41.33
2023-12-16T00:08:59.203Z,41.31
2023-12-16T00:09:59.229Z,41.32
2023-12-16T00:10:59.200Z,41.31
2023-12-16T00:11:59.214Z,41.33
2023-12-16T00:12:59.197Z,41.27
2023-12-16T00:13:59.189Z,41.24
2023-12-16T00:14:59.175Z,41.29
2023-12-16T00:15:59.228Z,41.26
2023-12-16T00:16:59.167Z,41.22
2023-12-16T00:17:59.315Z,41.26
2023-12-16T00:18:59.280Z,41.22
2023-12-16T00:19:59.168Z,41.20
2023-12-16T00:20:59.148Z,41.20
2023-12-16T00:21:59.129Z,41.21
2023-12-16T00:22:59.113Z,41.17
2023-12-16T00:23:59.095Z,41.20
2023-12-16T00:24:59.126Z,41.16
2023-12-16T00:25:59.097Z,41.13
2023-12-16T00:26:59.085Z,41.16
2023-12-16T00:27:59.136Z,41.16
2023-12-16T00:28:59.059Z,41.10
2023-12-16T00:29:59.063Z,41.11
2023-12-16T00:30:59.157Z,41.11
2023-12-16T00:31:59.130Z,41.13
2023-12-16T00:32:59.224Z,41.08
2023-12-16T00:33:59.186Z,41.05
2023-12-16T00:34:59.097Z,41.08
2023-12-16T00:35:59.117Z,41.09
2023-12-16T00:36:59.150Z,41.01
2023-12-16T00:37:59.124Z,41.05
2023-12-16T00:38:59.143Z,41.03
2023-12-16T00:39:59.195Z,41.02
2023-12-16T00:40:59.182Z,40.98
2023-12-16T00:41:59.203Z,41.02
2023-12-16T00:42:59.223Z,40.98
2023-12-16T00:43:59.212Z,40.95
2023-12-16T00:44:59.256Z,40.98
2023-12-16T00:45:59.295Z,40.96
2023-12-16T00:46:59.250Z,40.98
2023-12-16T00:47:59.355Z,40.97
2023-12-16T00:48:59.360Z,40.91
2023-12-16T00:49:59.364Z,40.93
2023-12-16T00:50:59.304Z,40.93
2023-12-16T00:51:59.336Z,40.93
2023-12-16T00:52:59.322Z,40.92
2023-12-16T00:53:59.341Z,40.90
2023-12-16T00:54:59.382Z,40.89
2023-12-16T00:55:59.387Z,40.91
2023-12-16T00:56:59.393Z,40.90
2023-12-16T00:57:59.420Z,40.90
2023-12-16T00:58:59.436Z,40.84
2023-12-16T00:59:59.439Z,40.86
2023-12-16T01:00:59.500Z,40.81
2023-12-16T01:01:59.553Z,40.81
2023-12-16T01:02:59.490Z,40.83
2023-12-16T01:03:59.586Z,40.85
2023-12-16T01:04:59.526Z,40.79
2023-12-16T01:05:59.523Z,40.81
2023-12-16T01:06:59.537Z,40.77
2023-12-16T01:07:59.552Z,40.79
2023-12-16T01:08:59.555Z,40.78
2023-12-16T01:09:59.606Z,40.75
2023-12-16T01:10:59.600Z,40.78
2023-12-16T01:11:59.622Z,40.76
2023-12-16T01:12:59.684Z,40.76
2023-12-16T01:13:59.655Z,40.74
2023-12-16T01:14:59.671Z,40.71
2023-12-16T01:15:59.693Z,40.71
2023-12-16T01:16:59.755Z,40.71
2023-12-16T01:17:59.775Z,40.68
2023-12-16T01:18:59.805Z,40.67
2023-12-16T01:19:59.733Z,40.70
2023-12-16T01:20:59.765Z,40.67
2023-12-16T01:21:59.771Z,40.70
2023-12-16T01:22:59.769Z,40.66
2023-12-16T01:23:59.798Z,40.70
2023-12-16T01:24:59.857Z,40.66
2023-12-16T01:25:59.827Z,40.63
2023-12-16T01:26:59.846Z,40.66
2023-12-16T01:27:59.881Z,40.67
2023-12-16T01:28:59.886Z,40.63
2023-12-16T01:29:59.914Z,40.61
2023-12-16T01:31:00.055Z,40.59
2023-12-16T01:31:59.976Z,40.57
2023-12-16T01:33:00.041Z,40.57
2023-12-16T01:34:00.194Z,40.56
2023-12-16T01:34:59.999Z,40.59
2023-12-16T01:36:00.019Z,40.57
2023-12-16T01:37:00.060Z,40.56
2023-12-16T01:38:00.046Z,40.53
2023-12-16T01:39:00.072Z,40.56
2023-12-16T01:40:00.173Z,40.50
2023-12-16T01:41:00.152Z,40.53
2023-12-16T01:42:00.157Z,40.52
2023-12-16T01:43:00.154Z,40.56
2023-12-16T01:44:00.149Z,40.53
2023-12-16T01:45:00.214Z,40.50
2023-12-16T01:46:00.319Z,40.53
2023-12-16T01:47:00.356Z,40.49
2023-12-16T01:48:00.342Z,40.44
2023-12-16T01:49:00.315Z,40.51
2023-12-16T01:50:00.371Z,40.47
2023-12-16T01:51:00.249Z,40.45
2023-12-16T01:52:00.328Z,40.47
2023-12-16T01:53:00.313Z,40.44
2023-12-16T01:54:00.308Z,40.41
2023-12-16T01:55:00.432Z,40.40
2023-12-16T01:56:00.371Z,40.44
2023-12-16T01:57:00.421Z,40.39
2023-12-16T01:58:00.413Z,40.40
2023-12-16T01:59:00.397Z,40.39
2023-12-16T02:00:00.539Z,40.36
2023-12-16T02:01:00.553Z,40.38
2023-12-16T02:02:00.493Z,40.37
2023-12-16T02:03:00.476Z,40.37
2023-12-16T02:04:00.573Z,40.34
2023-12-16T02:05:00.514Z,40.39
2023-12-16T02:06:00.557Z,40.30
2023-12-16T02:07:00.637Z,40.30
2023-12-16T02:08:00.588Z,40.37
2023-12-16T02:09:00.600Z,40.34
2023-12-16T02:10:00.738Z,40.29
2023-12-16T02:11:00.645Z,40.30
2023-12-16T02:12:00.679Z,40.32
2023-12-16T02:13:00.722Z,40.30
2023-12-16T02:14:00.719Z,40.29
2023-12-16T02:15:00.745Z,40.28
2023-12-16T02:16:00.846Z,40.25
2023-12-16T02:17:00.800Z,40.25
2023-12-16T02:18:00.936Z,40.28
2023-12-16T02:19:00.922Z,40.25
2023-12-16T02:20:01.060Z,40.25
2023-12-16T02:21:00.913Z,40.19
2023-12-16T02:22:00.985Z,40.25
2023-12-16T02:23:00.963Z,40.23
2023-12-16T02:24:00.978Z,40.23
2023-12-16T02:25:01.042Z,40.22
2023-12-16T02:26:01.030Z,40.17
2023-12-16T02:27:01.052Z,40.21
2023-12-16T02:28:01.087Z,40.22
2023-12-16T02:29:01.089Z,40.19
2023-12-16T02:30:01.088Z,40.17
2023-12-16T02:31:01.163Z,40.12
2023-12-16T02:32:01.146Z,40.12
2023-12-16T02:33:01.248Z,40.15
2023-12-16T02:34:01.253Z,40.14
2023-12-16T02:35:01.193Z,40.13
2023-12-16T02:36:01.208Z,40.13
2023-12-16T02:37:01.264Z,40.14
2023-12-16T02:38:01.271Z,40.10
2023-12-16T02:39:01.255Z,40.07
2023-12-16T02:40:01.292Z,40.08
2023-12-16T02:41:01.290Z,40.08
2023-12-16T02:42:01.407Z,40.10
2023-12-16T02:43:01.335Z,40.05
2023-12-16T02:44:01.330Z,40.05
2023-12-16T02:45:01.348Z,40.06
2023-12-16T02:46:01.540Z,40.05
2023-12-16T02:47:01.392Z,40.02
2023-12-16T02:48:01.668Z,40.06
2023-12-16T02:49:01.586Z,40.06
2023-12-16T02:50:01.556Z,40.06
2023-12-16T02:51:01.506Z,40.02
2023-12-16T02:52:01.537Z,39.99
2023-12-16T02:53:01.525Z,39.99
2023-12-16T02:54:01.542Z,40.00
2023-12-16T02:55:01.563Z,40.01
2023-12-16T02:56:01.566Z,39.94
2023-12-16T02:57:01.577Z,40.02
2023-12-16T02:58:01.618Z,39.99
2023-12-16T02:59:01.623Z,39.97
2023-12-16T03:00:01.688Z,39.99
2023-12-16T03:01:01.726Z,39.96
2023-12-16T03:02:01.715Z,39.98
2023-12-16T03:03:01.738Z,39.92
2023-12-16T03:04:01.739Z,39.94
2023-12-16T03:05:01.746Z,39.95
2023-12-16T03:06:01.780Z,39.92
2023-12-16T03:07:01.801Z,39.90
2023-12-16T03:08:01.803Z,39.92
2023-12-16T03:09:01.824Z,39.92
2023-12-16T03:10:01.875Z,39.92
2023-12-16T03:11:01.900Z,39.90
2023-12-16T03:12:01.921Z,39.90
2023-12-16T03:13:01.938Z,39.88
2023-12-16T03:14:01.913Z,39.88
2023-12-16T03:15:01.960Z,39.87
2023-12-16T03:16:01.961Z,39.83
2023-12-16T03:17:01.983Z,39.89
2023-12-16T03:18:02.048Z,39.82
2023-12-16T03:19:02.086Z,39.86
2023-12-16T03:20:02.105Z,39.85
2023-12-16T03:21:02.054Z,39.81
2023-12-16T03:22:02.110Z,39.79
2023-12-16T03:23:02.097Z,39.84
2023-12-16T03:24:02.115Z,39.81
2023-12-16T03:25:02.278Z,39.83
2023-12-16T03:26:02.146Z,39.78
2023-12-16T03:27:02.170Z,39.75
2023-12-16T03:28:02.249Z,39.77
2023-12-16T03:29:02.189Z,39.77
2023-12-16T03:30:02.207Z,39.76
2023-12-16T03:31:02.320Z,39.75
2023-12-16T03:32:02.241Z,39.78
2023-12-16T03:33:02.286Z,39.73
2023-12-16T03:34:02.355Z,39.74
2023-12-16T03:35:02.293Z,39.72
2023-12-16T03:36:02.300Z,39.69
2023-12-16T03:37:02.374Z,39.68
2023-12-16T03:38:02.336Z,39.72
2023-12-16T03:39:02.364Z,39.69
2023-12-16T03:40:02.506Z,39.67
2023-12-16T03:41:02.432Z,39.69
2023-12-16T03:42:02.421Z,39.68
2023-12-16T03:43:02.433Z,39.69
2023-12-16T03:44:02.446Z,39.64
2023-12-16T03:45:02.480Z,39.69
2023-12-16T03:46:02.504Z,39.64
2023-12-16T03:47:02.512Z,39.64
2023-12-16T03:48:02.636Z,39.62
2023-12-16T03:49:02.618Z,39.67
2023-12-16T03:50:02.596Z,39.67
2023-12-16T03:51:02.607Z,39.63
2023-12-16T03:52:02.649Z,39.63
2023-12-16T03:53:02.647Z,39.61
2023-12-16T03:54:02.662Z,39.59
2023-12-16T03:55:02.693Z,39.67
2023-12-16T03:56:02.684Z,39.61
2023-12-16T03:57:02.717Z,39.60
2023-12-16T03:58:02.754Z,39.62
2023-12-16T03:59:02.748Z,39.59
2023-12-16T04:00:02.810Z,39.58
2023-12-16T04:01:02.903Z,39.55
2023-12-16T04:02:02.940Z,39.58
2023-12-16T04:03:02.896Z,39.52
2023-12-16T04:04:02.903Z,39.54
2023-12-16T04:05:02.908Z,39.54
2023-12-16T04:06:02.898Z,39.55
2023-12-16T04:07:02.954Z,39.53
2023-12-16T04:08:02.939Z,39.52
2023-12-16T04:09:02.931Z,39.53
2023-12-16T04:10:02.973Z,39.53
2023-12-16T04:11:02.958Z,39.53
2023-12-16T04:12:02.984Z,39.56
2023-12-16T04:13:03.028Z,39.49
2023-12-16T04:14:03.026Z,39.50
2023-12-16T04:15:03.038Z,39.50
2023-12-16T04:16:03.127Z,39.46
2023-12-16T04:17:03.075Z,39.47
2023-12-16T04:18:03.169Z,39.45
2023-12-16T04:19:03.191Z,39.43
2023-12-16T04:20:03.239Z,39.46
2023-12-16T04:21:03.200Z,39.47
2023-12-16T04:22:03.204Z,39.45
2023-12-16T04:23:03.186Z,39.41
2023-12-16T04:24:03.213Z,39.46
2023-12-16T04:25:03.252Z,39.45
2023-12-16T04:26:06.111Z,39.46
2023-12-16T04:27:03.243Z,39.45
2023-12-16T04:28:03.316Z,39.41
2023-12-16T04:29:03.247Z,39.38
2023-12-16T04:30:03.208Z,39.34
2023-12-16T04:31:03.353Z,39.40
2023-12-16T04:32:03.197Z,39.42
2023-12-16T04:33:03.282Z,39.39
2023-12-16T04:34:03.237Z,39.45
2023-12-16T04:35:03.134Z,39.34
2023-12-16T04:36:03.126Z,39.34
2023-12-16T04:37:03.181Z,39.36
2023-12-16T04:38:03.100Z,39.37
2023-12-16T04:39:03.084Z,39.32
2023-12-16T04:40:03.104Z,39.37
2023-12-16T04:41:03.061Z,39.37
2023-12-16T04:42:03.064Z,39.34
2023-12-16T04:43:03.093Z,39.34
2023-12-16T04:44:03.018Z,39.34
2023-12-16T04:45:03.001Z,39.34
2023-12-16T04:46:03.015Z,39.37
2023-12-16T04:47:02.997Z,39.37
2023-12-16T04:48:03.040Z,39.28
2023-12-16T04:49:03.012Z,39.32
2023-12-16T04:50:02.947Z,39.31
2023-12-16T04:51:02.937Z,39.29
2023-12-16T04:52:02.929Z,39.30
2023-12-16T04:53:02.913Z,39.27
2023-12-16T04:54:02.906Z,39.26
2023-12-16T04:55:02.964Z,39.26
2023-12-16T04:56:02.875Z,39.26
2023-12-16T04:57:02.882Z,39.29
2023-12-16T04:58:02.867Z,39.26
2023-12-16T04:59:02.855Z,39.25
2023-12-16T05:00:02.829Z,39.23
2023-12-16T05:01:02.877Z,39.23
2023-12-16T05:02:10.251Z,39.32
2023-12-16T05:03:10.195Z,39.30
2023-12-16T05:04:10.252Z,39.31
2023-12-16T05:05:10.175Z,39.26
2023-12-16T05:06:10.321Z,39.25
2023-12-16T05:07:10.179Z,39.26
2023-12-16T05:08:10.132Z,39.25
2023-12-16T05:09:10.135Z,39.23
2023-12-16T05:10:10.169Z,39.20
2023-12-16T05:11:10.122Z,39.19
2023-12-16T05:12:10.116Z,39.20
2023-12-16T05:13:10.121Z,39.23
2023-12-16T05:14:10.101Z,39.18
2023-12-16T05:15:10.099Z,39.16
2023-12-16T05:16:10.168Z,39.16
2023-12-16T05:17:10.083Z,39.17
2023-12-16T05:18:10.201Z,39.16
2023-12-16T05:19:10.207Z,39.12
2023-12-16T05:20:10.197Z,39.16
2023-12-16T05:21:10.067Z,39.15
2023-12-16T05:22:10.073Z,39.15
2023-12-16T05:23:10.068Z,39.15
2023-12-16T05:24:10.054Z,39.15
2023-12-16T05:25:10.063Z,39.14
2023-12-16T05:26:10.027Z,39.12
2023-12-16T05:27:10.042Z,39.17
2023-12-16T05:28:10.049Z,39.11
2023-12-16T05:29:10.021Z,39.10
2023-12-16T05:30:10.930Z,39.12
2023-12-16T05:31:10.104Z,39.12
2023-12-16T05:32:10.031Z,39.09
2023-12-16T05:33:10.088Z,39.12
2023-12-16T05:34:10.053Z,39.07
2023-12-16T05:35:10.041Z,39.11
2023-12-16T05:36:10.118Z,39.08
2023-12-16T05:37:10.036Z,39.11
2023-12-16T05:38:09.991Z,39.07
2023-12-16T05:39:09.985Z,39.05
2023-12-16T05:40:09.986Z,39.05
2023-12-16T05:41:09.960Z,39.05
2023-12-16T05:42:09.954Z,39.07
2023-12-16T05:43:10.029Z,39.05
2023-12-16T05:44:09.941Z,39.04
2023-12-16T05:45:09.951Z,39.01
2023-12-16T05:46:09.994Z,39.01
2023-12-16T05:47:09.932Z,39.00
2023-12-16T05:49:10.035Z,38.99
2023-12-16T05:50:09.997Z,39.00
2023-12-16T05:51:09.910Z,39.01
2023-12-16T05:52:09.978Z,39.01
2023-12-16T05:53:09.912Z,38.99
2023-12-16T05:54:09.926Z,38.96
2023-12-16T05:55:09.944Z,38.96
2023-12-16T05:56:09.911Z,38.95
2023-12-16T05:57:09.932Z,38.93
2023-12-16T05:58:09.966Z,38.99
2023-12-16T05:59:09.906Z,38.97
2023-12-16T06:00:10.005Z,38.95
2023-12-16T06:01:09.956Z,38.89
2023-12-16T06:02:09.893Z,38.93
2023-12-16T06:03:09.966Z,38.96
2023-12-16T06:04:09.935Z,38.99
2023-12-16T06:05:09.903Z,38.95
2023-12-16T06:06:09.883Z,38.89
2023-12-16T06:07:09.891Z,38.93
2023-12-16T06:08:09.863Z,38.92
2023-12-16T06:09:09.867Z,38.95
2023-12-16T06:10:09.983Z,38.87
2023-12-16T06:11:09.855Z,38.93
2023-12-16T06:12:09.892Z,38.89
2023-12-16T06:13:09.912Z,38.89
2023-12-16T06:14:09.838Z,38.89
2023-12-16T06:15:09.832Z,38.84
2023-12-16T06:16:16.957Z,38.86
2023-12-16T06:17:10.911Z,38.87
2023-12-16T06:18:09.912Z,38.87
2023-12-16T06:19:09.920Z,38.84
2023-12-16T06:20:09.900Z,38.88
2023-12-16T06:21:09.792Z,38.85
2023-12-16T06:22:09.839Z,38.87
2023-12-16T06:23:09.801Z,38.82
2023-12-16T06:24:09.791Z,38.81
2023-12-16T06:25:09.925Z,38.82
2023-12-16T06:26:09.771Z,38.89
2023-12-16T06:27:09.753Z,38.85
2023-12-16T06:28:09.782Z,38.82
2023-12-16T06:29:09.759Z,38.77
2023-12-16T06:30:09.813Z,38.78
2023-12-16T06:31:09.798Z,38.80
2023-12-16T06:32:09.740Z,38.84
2023-12-16T06:33:09.805Z,38.80
2023-12-16T06:34:09.829Z,38.80
2023-12-16T06:35:09.720Z,38.84
2023-12-16T06:36:09.710Z,38.79
2023-12-16T06:37:09.784Z,38.78
2023-12-16T06:38:09.690Z,38.73
2023-12-16T06:39:09.701Z,38.81
2023-12-16T06:40:09.782Z,38.74
2023-12-16T06:41:09.744Z,38.76
2023-12-16T06:42:10.344Z,38.77
2023-12-16T06:43:09.824Z,38.73
2023-12-16T06:44:09.777Z,38.74
2023-12-16T06:45:09.799Z,38.76
2023-12-16T06:46:09.996Z,38.74
2023-12-16T06:47:09.839Z,38.71
2023-12-16T06:48:09.952Z,38.73
2023-12-16T06:49:09.911Z,38.73
2023-12-16T06:50:09.927Z,38.74
2023-12-16T06:51:09.898Z,38.70
2023-12-16T06:52:09.940Z,38.70
2023-12-16T06:53:09.960Z,38.69
2023-12-16T06:54:09.947Z,38.69
2023-12-16T06:55:10.011Z,38.71
2023-12-16T06:56:10.047Z,38.66
2023-12-16T06:57:09.980Z,38.66
2023-12-16T06:58:10.044Z,38.66
2023-12-16T06:59:10.025Z,38.66
2023-12-16T07:00:10.035Z,38.69
2023-12-16T07:01:10.114Z,38.64
2023-12-16T07:02:10.134Z,38.69
2023-12-16T07:03:10.110Z,38.67
2023-12-16T07:04:10.196Z,38.69
2023-12-16T07:05:10.130Z,38.69
2023-12-16T07:06:10.208Z,38.64
2023-12-16T07:07:10.206Z,38.67
2023-12-16T07:08:10.197Z,38.65
2023-12-16T07:09:10.228Z,38.66
2023-12-16T07:10:10.312Z,38.65
2023-12-16T07:11:10.252Z,38.67
2023-12-16T07:12:10.281Z,38.62
2023-12-16T07:13:10.333Z,38.60
2023-12-16T07:14:10.306Z,38.57
2023-12-16T07:15:10.331Z,38.54
2023-12-16T07:16:10.393Z,38.58
2023-12-16T07:17:10.427Z,38.59
2023-12-16T07:18:10.599Z,38.58
2023-12-16T07:19:10.447Z,38.61
2023-12-16T07:20:10.517Z,38.57
2023-12-16T07:21:10.451Z,38.57
2023-12-16T07:22:10.510Z,38.58
2023-12-16T07:23:10.497Z,38.56
2023-12-16T07:24:10.534Z,38.55
2023-12-16T07:25:10.609Z,38.54
2023-12-16T07:26:10.558Z,38.53
2023-12-16T07:27:10.590Z,38.54
2023-12-16T07:28:10.716Z,38.57
2023-12-16T07:29:10.638Z,38.58
2023-12-16T07:30:10.697Z,38.53
2023-12-16T07:31:10.745Z,38.53
2023-12-16T07:32:10.789Z,38.47
2023-12-16T07:33:10.774Z,38.49
2023-12-16T07:34:10.804Z,38.53
2023-12-16T07:35:10.802Z,38.53
2023-12-16T07:36:10.784Z,38.50
2023-12-16T07:37:10.841Z,38.53
2023-12-16T07:38:10.822Z,38.51
2023-12-16T07:39:10.831Z,38.44
2023-12-16T07:40:10.888Z,38.43
2023-12-16T07:41:10.869Z,38.46
2023-12-16T07:42:10.898Z,38.42
2023-12-16T07:43:10.976Z,38.46
2023-12-16T07:44:11.013Z,38.46
2023-12-16T07:45:10.954Z,38.45
2023-12-16T07:46:11.017Z,38.49
2023-12-16T07:47:10.996Z,38.42
2023-12-16T07:48:11.089Z,38.43
2023-12-16T07:49:11.107Z,38.43
2023-12-16T07:50:11.057Z,38.40
2023-12-16T07:51:11.075Z,38.41
2023-12-16T07:52:11.108Z,38.40
2023-12-16T07:53:11.120Z,38.38
2023-12-16T07:54:11.122Z,38.44
2023-12-16T07:55:11.255Z,38.41
2023-12-16T07:56:11.150Z,38.38
2023-12-16T07:57:11.173Z,38.37
2023-12-16T07:58:11.231Z,38.38
2023-12-16T07:59:11.226Z,38.38
2023-12-16T08:00:11.276Z,38.36
2023-12-16T08:01:11.352Z,38.34
2023-12-16T08:02:11.260Z,38.41
2023-12-16T08:03:11.312Z,38.37
2023-12-16T08:04:11.328Z,38.34
2023-12-16T08:05:11.322Z,38.35
2023-12-16T08:06:11.369Z,38.37
2023-12-16T08:07:11.398Z,38.38
2023-12-16T08:08:11.390Z,38.33
2023-12-16T08:09:11.438Z,38.34
2023-12-16T08:10:11.461Z,38.31
2023-12-16T08:11:11.474Z,38.30
2023-12-16T08:12:11.484Z,38.31
2023-12-16T08:13:11.574Z,38.27
2023-12-16T08:14:11.522Z,38.30
2023-12-16T08:15:11.517Z,38.28
2023-12-16T08:16:11.634Z,38.31
2023-12-16T08:17:11.554Z,38.29
2023-12-16T08:18:11.653Z,38.28
2023-12-16T08:19:11.717Z,38.28
2023-12-16T08:20:11.670Z,38.33
2023-12-16T08:21:11.670Z,38.29
2023-12-16T08:22:11.721Z,38.27
2023-12-16T08:23:11.690Z,38.27
2023-12-16T08:24:11.711Z,38.29
2023-12-16T08:25:11.763Z,38.25
2023-12-16T08:26:11.746Z,38.26
2023-12-16T08:27:11.749Z,38.23
2023-12-16T08:28:11.798Z,38.22
2023-12-16T08:29:11.789Z,38.28
2023-12-16T08:30:11.858Z,38.26
2023-12-16T08:31:11.895Z,38.23
2023-12-16T08:32:12.571Z,38.25
2023-12-16T08:33:11.947Z,38.23
2023-12-16T08:34:11.978Z,38.22
2023-12-16T08:35:12.039Z,38.25
2023-12-16T08:36:11.959Z,38.24
2023-12-16T08:37:12.003Z,38.19
2023-12-16T08:38:12.003Z,38.18
2023-12-16T08:39:12.034Z,38.19
2023-12-16T08:40:12.066Z,38.23
2023-12-16T08:41:12.054Z,38.23
2023-12-16T08:42:12.075Z,38.18
2023-12-16T08:43:12.119Z,38.23
2023-12-16T08:44:12.104Z,38.18
2023-12-16T08:45:12.141Z,38.19
2023-12-16T08:46:12.207Z,38.15
2023-12-16T08:47:12.162Z,38.19
2023-12-16T08:48:12.210Z,38.18
2023-12-16T08:49:12.284Z,38.13
2023-12-16T08:50:12.345Z,38.13
2023-12-16T08:51:12.251Z,38.16
2023-12-16T08:52:14.322Z,38.14
2023-12-16T08:53:12.283Z,38.14
2023-12-16T08:54:12.301Z,38.11
2023-12-16T08:55:12.412Z,38.14
2023-12-16T08:56:12.346Z,38.14
2023-12-16T08:57:12.365Z,38.15
2023-12-16T08:58:12.427Z,38.11
2023-12-16T08:59:12.423Z,38.08
2023-12-16T09:00:12.484Z,38.05
2023-12-16T09:01:12.531Z,38.04
2023-12-16T09:02:12.476Z,37.90
2023-12-16T09:03:12.512Z,37.87
2023-12-16T09:04:12.538Z,37.74
2023-12-16T09:05:12.499Z,37.69
2023-12-16T09:06:12.650Z,37.67
2023-12-16T09:07:12.610Z,37.55
2023-12-16T09:08:12.629Z,37.57
2023-12-16T09:09:13.703Z,37.56
2023-12-16T09:10:12.778Z,37.48
2023-12-16T09:11:12.812Z,37.44
2023-12-16T09:12:12.829Z,37.40
2023-12-16T09:13:12.907Z,37.40
2023-12-16T09:14:12.954Z,37.32
2023-12-16T09:15:12.981Z,37.26
2023-12-16T09:16:13.917Z,37.26
2023-12-16T09:17:13.060Z,37.18
2023-12-16T09:18:13.199Z,37.19
2023-12-16T09:19:13.664Z,37.12
2023-12-16T09:20:13.215Z,37.04
2023-12-16T09:21:13.283Z,37.06
2023-12-16T09:22:13.331Z,37.01
2023-12-16T09:23:13.398Z,36.98
2023-12-16T09:24:13.426Z,36.92
2023-12-16T09:25:13.525Z,36.95
2023-12-16T09:26:13.546Z,36.87
2023-12-16T09:27:13.611Z,36.83
2023-12-16T09:28:13.727Z,36.76
2023-12-16T09:29:13.779Z,36.71
2023-12-16T09:30:13.806Z,36.67
2023-12-16T09:31:13.877Z,36.65
2023-12-16T09:32:13.853Z,36.58
2023-12-16T09:33:14.172Z,36.56
2023-12-16T09:34:14.018Z,36.50
2023-12-16T09:35:14.027Z,36.49
2023-12-16T09:36:15.412Z,36.51
2023-12-16T09:37:14.116Z,36.44
2023-12-16T09:38:14.110Z,36.47
2023-12-16T09:39:14.209Z,36.40
2023-12-16T09:40:14.227Z,36.37
2023-12-16T09:41:14.244Z,36.40
2023-12-16T09:42:14.304Z,36.32
2023-12-16T09:43:14.370Z,36.34
2023-12-16T09:44:14.370Z,36.26
2023-12-16T09:45:14.386Z,36.26
2023-12-16T09:46:14.425Z,36.28
2023-12-16T09:47:14.451Z,36.23
2023-12-16T09:48:14.530Z,36.14
2023-12-16T09:49:14.651Z,36.16
2023-12-16T09:50:14.541Z,36.16
2023-12-16T09:51:14.565Z,36.15
2023-12-16T09:52:14.594Z,36.10
2023-12-16T09:53:14.610Z,36.04
2023-12-16T09:54:14.618Z,36.08
2023-12-16T09:55:14.766Z,36.18
2023-12-16T09:56:14.656Z,35.98
2023-12-16T09:57:14.676Z,36.06
2023-12-16T09:58:14.734Z,36.05
2023-12-16T09:59:14.706Z,36.04
2023-12-16T10:00:14.716Z,36.05
2023-12-16T10:01:14.814Z,35.94
2023-12-16T10:02:14.800Z,35.92
2023-12-16T10:03:14.787Z,35.86
2023-12-16T10:04:14.801Z,35.97
2023-12-16T10:05:14.823Z,35.97
2023-12-16T10:06:14.783Z,35.92
2023-12-16T10:07:14.841Z,35.93
2023-12-16T10:08:14.839Z,35.85
2023-12-16T10:09:14.796Z,35.87
2023-12-16T10:10:14.808Z,35.85
2023-12-16T10:11:15.273Z,35.85
2023-12-16T10:12:14.797Z,35.87
2023-12-16T10:13:14.841Z,35.83
2023-12-16T10:14:14.796Z,35.87
2023-12-16T10:15:14.806Z,35.89
2023-12-16T10:16:14.836Z,35.84
2023-12-16T10:17:14.793Z,35.86
2023-12-16T10:18:14.865Z,35.81
2023-12-16T10:19:14.888Z,35.87
2023-12-16T10:20:14.796Z,35.80
2023-12-16T10:21:19.444Z,35.84
2023-12-16T10:22:15.958Z,35.82
2023-12-16T10:23:14.788Z,35.83
2023-12-16T10:24:14.794Z,35.79
2023-12-16T10:25:15.423Z,35.80
2023-12-16T10:26:14.745Z,35.78
2023-12-16T10:27:14.782Z,35.77
2023-12-16T10:28:14.743Z,35.84
2023-12-16T10:29:15.349Z,35.75
2023-12-16T10:30:15.508Z,35.80
2023-12-16T10:31:14.797Z,35.81
2023-12-16T10:32:14.694Z,35.76
2023-12-16T10:33:14.767Z,35.83
2023-12-16T10:34:14.693Z,35.82
2023-12-16T10:35:14.650Z,35.84
2023-12-16T10:36:14.621Z,35.84
2023-12-16T10:37:15.476Z,35.86
2023-12-16T10:38:14.604Z,35.83
2023-12-16T10:39:14.601Z,35.84
2023-12-16T10:40:14.616Z,35.86
2023-12-16T10:41:14.584Z,35.84
2023-12-16T10:42:14.562Z,35.85
2023-12-16T10:43:14.572Z,35.84
2023-12-16T10:44:14.544Z,35.87
2023-12-16T10:45:14.526Z,35.89
2023-12-16T10:46:14.558Z,35.87
2023-12-16T10:47:14.510Z,35.90
2023-12-16T10:48:14.566Z,35.89
2023-12-16T10:49:14.558Z,35.90
2023-12-16T10:50:14.489Z,35.91
2023-12-16T10:51:14.457Z,35.90
2023-12-16T10:52:14.489Z,35.90
2023-12-16T10:53:14.450Z,35.85
2023-12-16T10:54:14.421Z,35.87
2023-12-16T10:55:14.464Z,35.89
2023-12-16T10:56:14.431Z,35.87
2023-12-16T10:57:14.398Z,35.89
2023-12-16T10:58:14.432Z,35.90
2023-12-16T10:59:14.374Z,35.96
2023-12-16T11:00:14.362Z,35.93
2023-12-16T11:01:14.430Z,35.89
2023-12-16T11:02:14.374Z,35.90
2023-12-16T11:03:14.403Z,35.91
2023-12-16T11:04:14.410Z,35.93
2023-12-16T11:05:14.408Z,35.89
2023-12-16T11:06:14.389Z,35.91
2023-12-16T11:07:14.412Z,35.94
2023-12-16T11:08:14.394Z,35.84
2023-12-16T11:09:14.383Z,35.93
2023-12-16T11:10:14.475Z,35.94
2023-12-16T11:11:14.390Z,35.91
2023-12-16T11:12:15.374Z,35.99
2023-12-16T11:13:14.427Z,35.93
2023-12-16T11:14:14.406Z,35.94
2023-12-16T11:15:14.426Z,35.95
2023-12-16T11:16:14.479Z,35.95
2023-12-16T11:17:14.445Z,35.96
2023-12-16T11:18:14.487Z,35.98
2023-12-16T11:19:14.565Z,36.02
2023-12-16T11:20:14.509Z,36.01
2023-12-16T11:21:14.478Z,36.08
2023-12-16T11:22:14.504Z,36.09
2023-12-16T11:23:14.501Z,36.10
2023-12-16T11:24:14.517Z,36.12
2023-12-16T11:25:14.581Z,36.15
2023-12-16T11:26:14.662Z,36.16
2023-12-16T11:27:14.588Z,36.12
2023-12-16T11:28:14.646Z,36.16
2023-12-16T11:29:14.677Z,36.17
2023-12-16T11:30:14.696Z,36.18
2023-12-16T11:31:14.751Z,36.18
2023-12-16T11:32:14.738Z,36.19
2023-12-16T11:33:14.868Z,36.19
2023-12-16T11:34:14.889Z,36.22
2023-12-16T11:35:14.829Z,36.25
2023-12-16T11:36:14.935Z,36.26
2023-12-16T11:37:14.935Z,36.23
2023-12-16T11:38:14.905Z,36.24
2023-12-16T11:39:14.942Z,36.24
2023-12-16T11:40:14.997Z,36.32
2023-12-16T11:41:14.999Z,36.27
2023-12-16T11:42:15.062Z,36.31
2023-12-16T11:43:15.102Z,36.33
2023-12-16T11:44:15.078Z,36.31
2023-12-16T11:45:15.115Z,36.31
2023-12-16T11:46:15.202Z,36.38
2023-12-16T11:47:15.179Z,36.35
2023-12-16T11:48:15.346Z,36.32
2023-12-16T11:49:15.335Z,36.31
2023-12-16T11:50:15.261Z,36.34
2023-12-16T11:51:15.299Z,36.31
2023-12-16T11:52:15.363Z,36.36
2023-12-16T11:53:15.387Z,36.37
2023-12-16T11:54:15.411Z,36.38
2023-12-16T11:55:15.437Z,36.43
2023-12-16T11:56:15.482Z,36.43
2023-12-16T11:57:15.510Z,36.43
2023-12-16T11:58:15.560Z,36.46
2023-12-16T11:59:15.585Z,36.46
2023-12-16T12:00:15.630Z,36.44
2023-12-16T12:01:15.736Z,36.51
2023-12-16T12:02:15.708Z,36.51
2023-12-16T12:03:15.743Z,36.47
2023-12-16T12:04:15.840Z,36.53
2023-12-16T12:05:15.921Z,36.53
2023-12-16T12:06:15.902Z,36.55
2023-12-16T12:07:15.997Z,36.57
2023-12-16T12:08:15.949Z,36.59
2023-12-16T12:09:15.997Z,36.63
2023-12-16T12:10:16.111Z,36.58
2023-12-16T12:11:17.033Z,36.61
2023-12-16T12:12:16.022Z,36.57
2023-12-16T12:13:16.072Z,36.56
2023-12-16T12:14:16.029Z,36.61
2023-12-16T12:15:19.247Z,36.64
2023-12-16T12:16:16.081Z,36.62
2023-12-16T12:17:16.046Z,36.62
2023-12-16T12:18:16.077Z,36.66
2023-12-16T12:19:16.159Z,36.61
2023-12-16T12:20:16.004Z,36.60
2023-12-16T12:21:15.999Z,36.69
2023-12-16T12:22:16.108Z,36.69
2023-12-16T12:23:15.980Z,36.67
2023-12-16T12:24:15.973Z,36.70
2023-12-16T12:26:15.992Z,36.71
2023-12-16T12:27:15.961Z,36.71
2023-12-16T12:28:15.946Z,36.70
2023-12-16T12:29:15.953Z,36.70
2023-12-16T12:30:16.049Z,36.73
2023-12-16T12:31:15.930Z,36.74
2023-12-16T12:32:15.907Z,36.72
2023-12-16T12:33:15.993Z,36.71
2023-12-16T12:34:15.974Z,36.71
2023-12-16T12:35:16.146Z,36.75
2023-12-16T12:36:16.027Z,36.74
2023-12-16T12:37:16.059Z,36.74
2023-12-16T12:38:16.096Z,36.76
2023-12-16T12:39:16.164Z,36.69
2023-12-16T12:40:16.736Z,36.74
2023-12-16T12:41:16.246Z,36.79
2023-12-16T12:42:16.296Z,36.79
2023-12-16T12:43:16.380Z,36.82
2023-12-16T12:44:16.423Z,36.84
2023-12-16T12:45:16.474Z,36.79
2023-12-16T12:46:16.537Z,36.81
2023-12-16T12:47:16.603Z,36.82
2023-12-16T12:48:17.248Z,36.82
2023-12-16T12:49:16.815Z,36.84
2023-12-16T12:50:16.752Z,36.82
2023-12-16T12:51:16.837Z,36.90
2023-12-16T12:52:16.903Z,36.89
2023-12-16T12:53:22.611Z,36.87
2023-12-16T12:54:17.979Z,36.90
2023-12-16T12:55:16.977Z,36.87